Time,TemperatureF,DewpointF,PressureIn,WindDirection,WindDirectionDegrees,WindSpeedMPH,WindSpeedGustMPH,Humidity,HourlyPrecipIn,Conditions,Clouds,dailyrainin,SoftwareType,DateUTC
2013-12-05 00:30:00,28.2,26.4,30.12,NE,55,3.0,9.0,93,0.00,,---,0.00,VWS V14.00,2013-12-05 05:30:00,
2013-12-05 01:00:00,28.0,26.2,30.12,East,81,7.0,10.0,93,0.00,,---,0.00,VWS V14.00,2013-12-05 06:00:00,
2013-12-05 01:30:00,27.6,25.8,30.10,ESE,115,3.0,10.0,93,0.00,,---,0.00,VWS V14.00,2013-12-05 06:30:00,
2013-12-05 02:00:00,27.1,25.6,30.08,NE,51,3.0,10.0,94,0.00,,---,0.00,VWS V14.00,2013-12-05 07:00:00,
2013-12-05 02:30:00,26.8,25.3,30.08,East,84,7.0,8.0,94,0.00,,---,0.00,VWS V14.00,2013-12-05 07:30:00,
2013-12-05 03:00:00,26.7,25.2,30.06,SE,138,10.0,12.0,94,0.00,,---,0.00,VWS V14.00,2013-12-05 08:00:00,
2013-12-05 03:30:00,26.6,25.1,30.05,ENE,78,2.0,9.0,94,0.00,,---,0.00,VWS V14.00,2013-12-05 08:30:00,
2013-12-05 04:00:00,26.6,25.1,30.04,East,79,8.0,11.0,94,0.00,,---,0.00,VWS V14.00,2013-12-05 09:00:00,
2013-12-05 04:30:00,26.7,25.2,30.01,NE,54,6.0,12.0,94,0.00,,---,0.00,VWS V14.00,2013-12-05 09:30:00,
2013-12-05 05:00:00,26.8,25.3,30.01,ENE,67,4.0,7.0,94,0.00,,---,0.00,VWS V14.00,2013-12-05 10:00:00,
2013-12-05 05:30:00,27.1,25.6,29.99,East,89,6.0,8.0,94,0.00,,---,0.00,VWS V14.00,2013-12-05 10:30:00,
2013-12-05 06:00:00,27.4,25.6,29.98,East,83,6.0,7.0,93,0.00,,---,0.00,VWS V14.00,2013-12-05 11:00:00,
2013-12-05 06:30:00,27.4,25.6,29.97,ENE,71,7.0,7.0,93,0.00,,---,0.00,VWS V14.00,2013-12-05 11:30:00,
2013-12-05 07:00:00,27.3,25.5,29.91,ESE,103,7.0,19.0,93,0.00,,---,0.00,VWS V14.00,2013-12-05 12:00:00,
2013-12-05 07:30:00,27.4,25.9,29.93,ENE,78,9.0,11.0,94,0.00,,---,0.00,VWS V14.00,2013-12-05 12:30:00,
2013-12-05 08:00:00,27.7,26.2,29.91,NNE,32,7.0,13.0,94,0.00,,---,0.00,VWS V14.00,2013-12-05 13:00:00,
2013-12-05 08:30:00,28.0,26.8,29.90,ENE,75,5.0,9.0,95,0.00,,---,0.00,VWS V14.00,2013-12-05 13:30:00,
2013-12-05 09:00:00,28.4,27.1,29.88,ENE,67,5.0,5.0,95,0.00,,---,0.00,VWS V14.00,2013-12-05 14:00:00,
2013-12-05 09:30:00,28.9,27.6,29.87,ENE,63,3.0,5.0,95,0.00,,---,0.00,VWS V14.00,2013-12-05 14:30:00,
2013-12-05 10:00:00,29.7,28.5,29.86,East,92,5.0,6.0,95,0.01,,---,0.01,VWS V14.00,2013-12-05 15:00:00,
2013-12-05 17:30:00,37.1,36.1,29.73,ENE,68,0.0,2.0,96,0.00,,---,0.02,VWS V14.00,2013-12-05 22:30:00,
2013-12-05 18:30:00,40.1,39.8,29.72,WSW,237,5.0,7.0,99,0.01,,---,0.02,VWS V14.00,2013-12-05 23:30:00,
2013-12-05 19:00:00,41.8,41.5,29.71,SE,130,4.0,10.0,99,0.01,,---,0.02,VWS V14.00,2013-12-06 00:00:00,
2013-12-05 19:30:00,43.1,42.8,29.71,SSW,192,0.0,7.0,99,0.00,,---,0.02,VWS V14.00,2013-12-06 00:30:00,
2013-12-05 20:00:00,42.3,41.8,29.73,South,188,5.0,8.0,98,0.00,,---,0.02,VWS V14.00,2013-12-06 01:00:00,
2013-12-05 20:29:00,41.2,40.4,29.74,South,186,5.0,5.0,97,0.00,,---,0.02,VWS V14.00,2013-12-06 01:29:00,
2013-12-05 21:00:00,40.3,39.2,29.74,NW,308,3.0,12.0,96,0.00,,---,0.02,VWS V14.00,2013-12-06 02:00:00,
2013-12-05 21:30:00,38.0,36.2,29.74,East,80,3.0,8.0,93,0.00,,---,0.02,VWS V14.00,2013-12-06 02:30:00,
2013-12-05 22:00:00,36.4,34.6,29.77,ENE,61,4.0,8.0,93,0.00,,---,0.02,VWS V14.00,2013-12-06 03:00:00,
2013-12-05 22:30:00,35.9,33.8,29.78,ENE,77,3.0,8.0,92,0.00,,---,0.02,VWS V14.00,2013-12-06 03:30:00,